Time;durP1;ratioP1;P1;durP2;ratioP2;P2;SDS_P1;SDS_P2;PMS_P1;PMS_P2;Temp;Humidity;BMP_temperature;BMP_pressure;BME280_temperature;BME280_humidity;BME280_pressure;Samples;Min_cycle;Max_cycle;Signal;HPM_P1;HPM_P2
2021/12/09 05:14:47;;;;;;;1.27;0.60;;;1.70;99.90;;;;;;4907097;29;20324;-67
2021/12/09 05:17:15;;;;;;;0.80;0.80;;;1.70;99.90;;;;;;4900963;29;20199;-67
2021/12/09 05:19:43;;;;;;;0.80;0.80;;;1.80;99.90;;;;;;4900892;29;20297;-68
2021/12/09 05:22:10;;;;;;;1.00;1.00;;;1.80;99.90;;;;;;4900701;29;20309;-69
2021/12/09 05:24:37;;;;;;;1.00;1.00;;;1.90;99.90;;;;;;4900485;29;20206;-69
2021/12/09 05:27:05;;;;;;;0.90;0.90;;;1.90;99.90;;;;;;4900790;29;20206;-69
2021/12/09 05:29:38;;;;;;;0.88;0.88;;;1.90;99.90;;;;;;4900510;29;20610;-69
2021/12/09 05:32:10;;;;;;;0.95;0.90;;;1.90;99.90;;;;;;4901496;29;20190;-67
2021/12/09 05:34:39;;;;;;;0.85;0.85;;;2.00;99.90;;;;;;4901612;29;20273;-68
2021/12/09 05:37:07;;;;;;;0.70;0.70;;;2.00;99.90;;;;;;4901050;29;20238;-69
2021/12/09 05:39:36;;;;;;;0.80;0.80;;;2.00;99.90;;;;;;4900556;29;20289;-69
2021/12/09 05:42:04;;;;;;;0.80;0.80;;;2.00;99.90;;;;;;4900971;29;20241;-67
2021/12/09 05:44:31;;;;;;;0.85;0.85;;;2.00;99.90;;;;;;4900983;29;20301;-67
2021/12/09 05:46:59;;;;;;;0.90;0.90;;;2.00;99.90;;;;;;4901352;29;20288;-67
2021/12/09 05:49:29;;;;;;;0.80;0.80;;;2.00;99.90;;;;;;4901983;29;20233;-70
2021/12/09 05:51:56;;;;;;;0.80;0.80;;;1.90;99.90;;;;;;4901594;29;20269;-70
2021/12/09 05:54:23;;;;;;;1.08;0.80;;;1.90;99.90;;;;;;4900329;29;20222;-71
2021/12/09 05:56:50;;;;;;;0.75;0.75;;;1.90;99.90;;;;;;4900690;29;20317;-68
2021/12/09 05:59:17;;;;;;;0.80;0.80;;;1.90;99.90;;;;;;4900198;29;20202;-67
2021/12/09 06:01:44;;;;;;;0.95;0.95;;;1.90;99.90;;;;;;4900196;29;20202;-67
2021/12/09 06:04:11;;;;;;;0.80;0.80;;;1.90;99.90;;;;;;4899850;29;20316;-67
2021/12/09 06:06:41;;;;;;;0.90;0.90;;;1.90;99.90;;;;;;4900031;29;20199;-67
2021/12/09 06:09:10;;;;;;;0.80;0.80;;;1.90;99.90;;;;;;4900088;29;20585;-67
2021/12/09 06:11:38;;;;;;;0.80;0.80;;;1.90;99.90;;;;;;4900055;29;20292;-67
2021/12/09 06:14:06;;;;;;;0.90;0.90;;;1.90;99.90;;;;;;4899671;29;20717;-67
2021/12/09 06:16:33;;;;;;;0.90;0.90;;;1.90;99.90;;;;;;4899532;29;20226;-67
2021/12/09 06:19:01;;;;;;;0.70;0.70;;;1.90;99.90;;;;;;4899897;29;20292;-67
2021/12/09 06:21:28;;;;;;;0.80;0.80;;;1.90;99.90;;;;;;4899809;29;20209;-68
2021/12/09 06:23:59;;;;;;;0.70;0.70;;;1.90;99.90;;;;;;4899422;29;20230;-67
2021/12/09 06:26:27;;;;;;;0.90;0.90;;;1.90;99.90;;;;;;4899425;29;20197;-67
2021/12/09 06:28:54;;;;;;;0.90;0.90;;;1.90;99.90;;;;;;4899684;29;20237;-67
2021/12/09 06:31:22;;;;;;;0.63;0.63;;;1.80;99.90;;;;;;4900150;29;20292;-67
2021/12/09 06:33:49;;;;;;;0.80;0.80;;;1.80;99.90;;;;;;4899178;29;20639;-67
2021/12/09 06:36:16;;;;;;;0.93;0.90;;;1.90;99.90;;;;;;4899656;29;20226;-67
2021/12/09 06:38:43;;;;;;;0.77;0.77;;;1.80;99.90;;;;;;4899473;29;20296;-67
2021/12/09 06:41:12;;;;;;;0.80;0.80;;;1.80;99.90;;;;;;4899146;29;20301;-67
2021/12/09 06:43:40;;;;;;;0.82;0.82;;;1.80;99.90;;;;;;4899204;29;20320;-67
2021/12/09 06:46:10;;;;;;;0.80;0.80;;;1.80;99.90;;;;;;4899174;29;20249;-67
2021/12/09 06:48:37;;;;;;;0.80;0.80;;;1.80;99.90;;;;;;4899558;29;20659;-67
2021/12/09 06:51:05;;;;;;;1.05;1.05;;;1.80;99.90;;;;;;4899319;29;20304;-67
2021/12/09 06:53:33;;;;;;;0.90;0.90;;;1.80;99.90;;;;;;4899068;29;20262;-67
2021/12/09 06:56:00;;;;;;;1.17;1.17;;;1.80;99.90;;;;;;4899104;29;20309;-67
2021/12/09 06:58:28;;;;;;;1.50;1.38;;;1.80;99.90;;;;;;4899569;29;20305;-67
2021/12/09 07:00:57;;;;;;;2.05;1.85;;;1.80;99.90;;;;;;4898946;29;20301;-67
2021/12/09 07:03:24;;;;;;;1.67;1.58;;;1.70;99.90;;;;;;4899101;29;20318;-67
2021/12/09 07:05:53;;;;;;;1.48;1.42;;;1.70;99.90;;;;;;4899906;29;20293;-67
2021/12/09 07:08:21;;;;;;;1.75;1.65;;;1.70;99.90;;;;;;4899690;29;20302;-67
2021/12/09 07:10:48;;;;;;;4.07;2.40;;;1.70;99.90;;;;;;4899661;29;20288;-67
2021/12/09 07:13:15;;;;;;;2.40;2.20;;;1.70;99.90;;;;;;4899046;29;20308;-67
2021/12/09 07:15:44;;;;;;;2.00;1.90;;;1.70;99.90;;;;;;4898905;29;20662;-67
2021/12/09 07:18:11;;;;;;;3.67;2.28;;;1.70;99.90;;;;;;4898983;29;20293;-67
2021/12/09 07:20:38;;;;;;;2.05;1.88;;;1.70;99.90;;;;;;4898565;29;20238;-67
2021/12/09 07:23:05;;;;;;;1.70;1.60;;;1.70;99.90;;;;;;4898462;29;20776;-68
2021/12/09 07:25:32;;;;;;;1.65;1.55;;;1.70;99.90;;;;;;4898470;29;20212;-67
2021/12/09 07:27:59;;;;;;;1.90;1.80;;;1.70;99.90;;;;;;4898399;29;20208;-68
2021/12/09 07:30:27;;;;;;;1.58;1.58;;;1.70;99.90;;;;;;4898738;29;20213;-67
2021/12/09 07:32:56;;;;;;;1.38;1.30;;;1.70;99.90;;;;;;4898601;29;20321;-67
2021/12/09 07:35:26;;;;;;;1.63;1.52;;;1.70;99.90;;;;;;4898690;29;20206;-67
2021/12/09 07:37:53;;;;;;;1.38;1.38;;;1.80;99.90;;;;;;4898612;29;20209;-67
2021/12/09 07:40:20;;;;;;;1.30;1.20;;;1.80;99.90;;;;;;4898319;29;20749;-67
2021/12/09 07:42:47;;;;;;;1.05;1.05;;;1.80;99.90;;;;;;4898515;29;20333;-68
2021/12/09 07:45:15;;;;;;;1.42;1.15;;;1.90;99.90;;;;;;4898931;29;20293;-67
2021/12/09 07:47:43;;;;;;;1.10;1.10;;;2.00;99.90;;;;;;4898210;29;20762;-67
2021/12/09 07:50:14;;;;;;;0.93;0.93;;;2.00;99.90;;;;;;4898175;29;20574;-67
2021/12/09 07:52:42;;;;;;;1.00;1.00;;;2.00;99.90;;;;;;4898135;29;20667;-68
2021/12/09 07:55:10;;;;;;;1.00;1.00;;;2.00;99.90;;;;;;4898466;29;20570;-67
2021/12/09 07:57:37;;;;;;;1.20;1.20;;;2.10;99.90;;;;;;4901200;29;20230;-67
2021/12/09 08:00:07;;;;;;;0.90;0.90;;;2.20;99.90;;;;;;4902453;29;20653;-67
2021/12/09 08:02:35;;;;;;;0.90;0.90;;;2.20;99.90;;;;;;4902933;29;20321;-67
2021/12/09 08:05:02;;;;;;;0.80;0.80;;;2.20;99.90;;;;;;4902832;29;20210;-67
2021/12/09 08:07:30;;;;;;;0.90;0.90;;;2.30;99.90;;;;;;4902711;29;20749;-67
2021/12/09 08:09:57;;;;;;;0.70;0.70;;;2.30;99.90;;;;;;4902691;29;20297;-67
2021/12/09 08:12:24;;;;;;;0.70;0.70;;;2.40;99.90;;;;;;4903260;29;20222;-67
2021/12/09 08:14:51;;;;;;;0.80;0.80;;;2.40;99.90;;;;;;4903238;29;20269;-67
2021/12/09 08:17:44;;;;;;;0.73;0.73;;;2.40;99.90;;;;;;4902968;29;20234;-67
2021/12/09 08:20:13;;;;;;;0.88;0.88;;;2.40;99.90;;;;;;4902520;29;20190;-67
2021/12/09 08:22:42;;;;;;;0.80;0.80;;;2.50;99.90;;;;;;4902188;29;20312;-67
2021/12/09 08:25:13;;;;;;;0.95;0.95;;;2.50;99.90;;;;;;4901647;29;20296;-67
2021/12/09 08:27:42;;;;;;;0.70;0.70;;;2.50;99.90;;;;;;4901943;29;20277;-67
2021/12/09 08:30:12;;;;;;;0.90;0.90;;;2.50;99.90;;;;;;4901986;29;20293;-67
2021/12/09 08:32:39;;;;;;;0.80;0.80;;;2.50;99.90;;;;;;4901808;29;20309;-67
2021/12/09 08:35:07;;;;;;;1.75;1.10;;;2.50;99.90;;;;;;4901771;29;20210;-67
2021/12/09 08:37:34;;;;;;;0.80;0.80;;;2.50;99.90;;;;;;4901552;29;20318;-67
2021/12/09 08:40:02;;;;;;;0.88;0.88;;;2.50;99.90;;;;;;4901630;29;20300;-67
2021/12/09 08:42:29;;;;;;;0.70;0.70;;;2.50;99.90;;;;;;4901576;29;20317;-67
2021/12/09 08:44:56;;;;;;;0.80;0.80;;;2.60;99.90;;;;;;4901567;29;20297;-67
2021/12/09 08:47:22;;;;;;;0.90;0.90;;;2.60;99.90;;;;;;4902054;29;20225;-67
2021/12/09 08:49:49;;;;;;;0.90;0.90;;;2.70;99.90;;;;;;4901463;29;20253;-67
2021/12/09 08:52:16;;;;;;;0.80;0.80;;;2.70;99.90;;;;;;4901032;29;20745;-67
2021/12/09 08:54:43;;;;;;;1.00;1.00;;;2.70;99.90;;;;;;4901072;29;20672;-67
2021/12/09 08:57:12;;;;;;;0.82;0.82;;;2.70;99.90;;;;;;4901394;29;20325;-67
2021/12/09 08:59:39;;;;;;;0.88;0.88;;;2.70;99.90;;;;;;4901097;29;20576;-67
2021/12/09 09:02:06;;;;;;;0.90;0.90;;;2.70;99.90;;;;;;4901363;29;20289;-67
2021/12/09 09:04:33;;;;;;;1.08;1.08;;;2.70;99.90;;;;;;4901206;29;20289;-67
2021/12/09 09:07:02;;;;;;;1.08;1.00;;;2.70;99.90;;;;;;4900952;29;20292;-67
2021/12/09 09:09:33;;;;;;;1.20;1.20;;;2.70;99.90;;;;;;4901248;29;20289;-67
2021/12/09 09:12:01;;;;;;;1.10;1.10;;;2.70;99.90;;;;;;4900816;29;20288;-68
2021/12/09 09:14:29;;;;;;;1.00;1.00;;;2.70;99.90;;;;;;4900892;29;20398;-68
2021/12/09 09:16:56;;;;;;;0.90;0.90;;;2.70;99.90;;;;;;4900927;29;20300;-68
2021/12/09 09:19:23;;;;;;;1.08;1.08;;;2.70;99.90;;;;;;4900957;29;20630;-67
2021/12/09 09:21:50;;;;;;;1.38;1.20;;;2.70;99.90;;;;;;4900918;29;20237;-67
2021/12/09 09:24:18;;;;;;;1.23;1.13;;;2.70;99.90;;;;;;4900521;29;20716;-67
2021/12/09 09:26:45;;;;;;;1.10;1.10;;;2.70;99.90;;;;;;4900788;29;20294;-67
2021/12/09 09:29:12;;;;;;;1.17;1.17;;;2.70;99.90;;;;;;4900454;29;20749;-67
2021/12/09 09:31:42;;;;;;;1.13;1.13;;;2.70;99.90;;;;;;4900414;29;20741;-67
2021/12/09 09:34:11;;;;;;;0.90;0.90;;;2.70;99.90;;;;;;4900325;29;20278;-67
2021/12/09 09:36:43;;;;;;;0.98;0.98;;;2.80;99.90;;;;;;4900514;29;20229;-67
2021/12/09 09:39:18;;;;;;;1.02;1.00;;;2.80;99.90;;;;;;4900652;29;20277;-67
2021/12/09 09:41:48;;;;;;;1.10;1.10;;;2.80;99.90;;;;;;4900251;29;20654;-67
2021/12/09 09:44:17;;;;;;;1.02;1.02;;;2.90;99.90;;;;;;4900422;29;20237;-67
2021/12/09 09:46:45;;;;;;;1.10;1.10;;;2.90;99.90;;;;;;4900479;29;20257;-67
2021/12/09 09:49:13;;;;;;;0.90;0.90;;;3.00;99.90;;;;;;4900201;29;20688;-67
2021/12/09 09:51:41;;;;;;;0.90;0.70;;;3.00;99.90;;;;;;4900537;29;20234;-68
2021/12/09 09:54:10;;;;;;;1.45;0.77;;;3.10;99.90;;;;;;4900041;29;20313;-69
2021/12/09 09:56:41;;;;;;;1.00;1.00;;;3.10;99.90;;;;;;4900007;29;20313;-68
2021/12/09 09:59:10;;;;;;;0.90;0.90;;;3.10;99.90;;;;;;4900420;29;20198;-68
2021/12/09 10:01:40;;;;;;;0.75;0.75;;;3.10;99.90;;;;;;4899974;29;20684;-68
2021/12/09 10:04:20;;;;;;;1.05;1.05;;;3.20;99.90;;;;;;4900188;29;20317;-68
2021/12/09 10:06:47;;;;;;;0.90;0.70;;;3.20;99.90;;;;;;4900224;29;20186;-68
2021/12/09 10:09:16;;;;;;;1.00;1.00;;;3.30;99.90;;;;;;4899939;29;20278;-68
2021/12/09 10:11:44;;;;;;;1.00;1.00;;;3.30;99.90;;;;;;4900106;29;20209;-68
2021/12/09 10:14:13;;;;;;;0.73;0.73;;;3.30;99.90;;;;;;4899602;29;20313;-68
2021/12/09 10:16:42;;;;;;;0.70;0.70;;;3.40;99.90;;;;;;4899533;29;20269;-68
2021/12/09 10:19:17;;;;;;;0.93;0.93;;;3.40;99.90;;;;;;4899394;29;20297;-68
2021/12/09 10:21:46;;;;;;;0.82;0.80;;;3.50;99.90;;;;;;4899862;29;20292;-69
2021/12/09 10:24:13;;;;;;;0.80;0.80;;;3.50;99.90;;;;;;4899615;29;20320;-68
2021/12/09 10:26:41;;;;;;;0.80;0.80;;;3.60;99.90;;;;;;4899690;29;20237;-68
2021/12/09 10:29:15;;;;;;;1.02;0.93;;;3.60;99.90;;;;;;4899328;29;20766;-68
2021/12/09 10:31:46;;;;;;;0.70;0.70;;;3.60;99.90;;;;;;4900464;29;20186;-68
2021/12/09 10:34:21;;;;;;;0.70;0.70;;;3.70;99.90;;;;;;4899598;29;20316;-68
2021/12/09 10:36:58;;;;;;;0.80;0.80;;;3.80;99.90;;;;;;4900201;29;20226;-68
2021/12/09 10:39:37;;;;;;;0.85;0.85;;;3.80;99.90;;;;;;4899531;29;20286;-68
2021/12/09 10:42:07;;;;;;;1.10;1.10;;;3.90;99.90;;;;;;4899545;29;20277;-69
2021/12/09 10:44:47;;;;;;;0.82;0.82;;;4.00;99.90;;;;;;4899411;29;20210;-68
2021/12/09 10:47:22;;;;;;;0.90;0.90;;;4.10;99.90;;;;;;4899582;29;20191;-68
2021/12/09 10:50:05;;;;;;;1.38;1.30;;;4.10;99.90;;;;;;4899173;29;20189;-68
2021/12/09 10:52:39;;;;;;;0.90;0.90;;;4.30;99.90;;;;;;4899188;29;20281;-69
2021/12/09 10:55:08;;;;;;;1.20;1.10;;;4.30;99.90;;;;;;4899308;29;20198;-68
2021/12/09 10:57:35;;;;;;;1.35;1.35;;;4.40;99.90;;;;;;4899136;29;20321;-68
2021/12/09 11:00:21;;;;;;;0.90;0.90;;;4.40;99.90;;;;;;4899507;29;20293;-69
2021/12/09 11:03:02;;;;;;;1.13;1.13;;;4.40;99.90;;;;;;4899067;29;20232;-68
2021/12/09 11:05:33;;;;;;;0.90;0.90;;;4.40;99.90;;;;;;4898895;29;20281;-69
2021/12/09 11:08:23;;;;;;;1.13;1.13;;;4.40;99.90;;;;;;4898996;29;20297;-69
2021/12/09 11:10:57;;;;;;;1.30;1.30;;;4.40;99.90;;;;;;4899077;29;20263;-68
2021/12/09 11:13:24;;;;;;;1.40;1.35;;;4.50;99.90;;;;;;4898867;29;20312;-69
2021/12/09 11:15:56;;;;;;;1.23;1.23;;;4.50;99.90;;;;;;4898437;29;20626;-68
2021/12/09 11:18:36;;;;;;;1.35;1.35;;;4.50;99.90;;;;;;4898875;29;20274;-68
2021/12/09 11:21:12;;;;;;;0.82;0.82;;;4.60;99.90;;;;;;4898862;29;20623;-69
2021/12/09 11:23:42;;;;;;;0.95;0.95;;;4.60;99.90;;;;;;4898785;29;20321;-69
2021/12/09 11:26:39;;;;;;;1.50;1.10;;;4.60;99.90;;;;;;4898846;29;20254;-69
2021/12/09 11:29:10;;;;;;;0.80;0.80;;;4.60;99.90;;;;;;4898838;29;20198;-69
2021/12/09 11:31:42;;;;;;;1.00;1.00;;;4.60;99.90;;;;;;4897914;29;20217;-69
2021/12/09 11:34:13;;;;;;;0.90;0.90;;;4.60;99.90;;;;;;4898825;29;20294;-69
2021/12/09 11:36:48;;;;;;;1.00;1.00;;;4.50;99.90;;;;;;4898656;29;20205;-69
2021/12/09 11:39:22;;;;;;;0.98;0.90;;;4.50;99.90;;;;;;4898764;29;20196;-69
2021/12/09 11:41:49;;;;;;;0.80;0.80;;;4.50;99.90;;;;;;4898756;29;20249;-69
2021/12/09 11:44:16;;;;;;;0.70;0.70;;;4.50;99.90;;;;;;4898562;29;20246;-69
2021/12/09 11:46:46;;;;;;;0.82;0.82;;;4.50;99.90;;;;;;4898603;29;20292;-69
2021/12/09 11:49:13;;;;;;;1.08;0.95;;;4.50;99.90;;;;;;4898567;29;20308;-69
2021/12/09 11:51:41;;;;;;;0.93;0.93;;;4.60;99.90;;;;;;4898365;29;20769;-69
2021/12/09 11:54:11;;;;;;;0.85;0.85;;;4.70;99.90;;;;;;4898672;29;20258;-71
2021/12/09 12:11:07;;;;;;;2.17;1.20;;;4.40;99.90;;;;;;4899916;29;20241;-69
2021/12/09 12:13:45;;;;;;;1.27;1.17;;;4.40;99.90;;;;;;4899013;29;20264;-69
2021/12/09 12:16:30;;;;;;;1.55;1.45;;;4.40;99.90;;;;;;4898316;29;20563;-69
2021/12/09 12:19:02;;;;;;;1.10;1.10;;;4.40;99.90;;;;;;4898332;29;20210;-69
2021/12/09 12:27:39;;;;;;;1.40;1.30;;;4.50;99.90;;;;;;4898708;29;20631;-68
2021/12/09 12:36:01;;;;;;;0.93;0.90;;;4.50;99.90;;;;;;4895957;29;20242;-67
2021/12/09 12:41:15;;;;;;;1.20;1.20;;;4.50;99.90;;;;;;4894779;29;20198;-68
2021/12/09 12:43:52;;;;;;;1.48;1.15;;;4.40;99.90;;;;;;4900705;29;20226;-68
2021/12/09 12:46:44;;;;;;;1.38;1.27;;;4.40;99.90;;;;;;4901321;29;20190;-67
2021/12/09 12:49:21;;;;;;;1.60;1.33;;;4.30;99.90;;;;;;4901404;29;20711;-68
2021/12/09 12:51:55;;;;;;;1.20;1.20;;;4.20;99.90;;;;;;4901341;29;20193;-68
2021/12/09 12:54:32;;;;;;;1.35;1.35;;;4.10;99.90;;;;;;4901352;29;20229;-68
2021/12/09 12:57:01;;;;;;;1.42;1.33;;;4.10;99.90;;;;;;4901051;29;20530;-68
2021/12/09 12:59:33;;;;;;;1.48;1.38;;;4.20;99.90;;;;;;4961669;23;20278;-69
2021/12/09 13:02:19;;;;;;;1.40;1.40;;;4.30;99.90;;;;;;4958128;28;20635;-69
2021/12/09 13:04:58;;;;;;;1.05;1.05;;;4.30;99.90;;;;;;4958263;28;20275;-69
2021/12/09 13:07:38;;;;;;;1.50;1.20;;;4.30;99.90;;;;;;4958051;28;20687;-69
2021/12/09 13:10:30;;;;;;;1.25;1.25;;;4.30;99.90;;;;;;4962665;28;20319;-69
2021/12/09 13:13:12;;;;;;;1.10;1.10;;;4.30;99.90;;;;;;4962143;28;20211;-69
2021/12/09 13:16:03;;;;;;;1.33;1.27;;;4.30;99.90;;;;;;4961733;28;20279;-68
2021/12/09 13:18:53;;;;;;;1.00;1.00;;;4.20;99.90;;;;;;4961305;28;20310;-70
2021/12/09 13:21:39;;;;;;;1.20;1.20;;;4.10;99.90;;;;;;4962160;28;20192;-69
2021/12/09 13:24:40;;;;;;;1.10;1.00;;;4.10;99.90;;;;;;4959939;28;20227;-69
2021/12/09 13:27:46;;;;;;;1.23;1.20;;;4.00;99.90;;;;;;4960915;28;20199;-69
2021/12/09 13:36:15;;;;;;;0.90;0.90;;;3.80;99.90;;;;;;4950833;28;20236;-69
2021/12/09 13:47:37;;;;;;;1.50;1.45;;;3.40;99.90;;;;;;5091125;28;20186;-68
2021/12/09 13:55:42;;;;;;;1.10;1.10;;;3.10;99.90;;;;;;5090765;28;20198;-68
2021/12/09 13:58:12;;;;;;;1.10;1.10;;;3.00;99.90;;;;;;5090826;28;20286;-69
2021/12/09 14:00:40;;;;;;;1.00;1.00;;;3.00;99.90;;;;;;5091371;28;20210;-69
2021/12/09 14:03:10;;;;;;;0.90;0.90;;;2.90;99.90;;;;;;5091002;28;20569;-69
2021/12/09 14:05:40;;;;;;;1.20;1.15;;;2.90;99.90;;;;;;5091217;28;20286;-68
2021/12/09 14:08:09;;;;;;;1.08;1.08;;;2.80;99.90;;;;;;5090775;28;20766;-69
2021/12/09 14:10:40;;;;;;;0.85;0.85;;;2.80;99.90;;;;;;5090462;28;20195;-68
2021/12/09 14:13:12;;;;;;;0.80;0.80;;;2.80;99.90;;;;;;5090583;28;20561;-69
2021/12/09 14:15:57;;;;;;;0.80;0.80;;;2.80;99.90;;;;;;5090523;28;20206;-69
2021/12/09 14:18:31;;;;;;;1.08;1.08;;;2.80;99.90;;;;;;5090116;28;20694;-69
2021/12/09 14:21:00;;;;;;;1.40;1.40;;;2.80;99.90;;;;;;5090819;28;20199;-69
2021/12/09 14:23:27;;;;;;;1.02;1.02;;;2.90;99.90;;;;;;5090428;28;20286;-69
2021/12/09 14:25:54;;;;;;;0.95;0.95;;;2.90;99.90;;;;;;5090356;28;20294;-69
2021/12/09 14:28:21;;;;;;;0.90;0.90;;;2.90;99.90;;;;;;5090255;28;20221;-68
2021/12/09 14:30:50;;;;;;;1.10;1.10;;;2.90;99.90;;;;;;5090292;28;20199;-68
2021/12/09 14:33:19;;;;;;;1.08;1.08;;;2.90;99.90;;;;;;5090067;28;20253;-68
2021/12/09 14:35:53;;;;;;;0.90;0.90;;;2.90;99.90;;;;;;5090258;28;20196;-68
2021/12/09 14:38:22;;;;;;;0.90;0.90;;;2.90;99.90;;;;;;5090098;28;20219;-67
2021/12/09 14:40:54;;;;;;;0.70;0.70;;;2.90;99.90;;;;;;5089516;28;20765;-67
2021/12/09 14:43:22;;;;;;;1.00;1.00;;;2.90;99.90;;;;;;5089534;28;20580;-68
2021/12/09 14:45:57;;;;;;;0.85;0.85;;;3.00;99.90;;;;;;5089883;28;20659;-68
2021/12/09 14:48:30;;;;;;;0.90;0.90;;;3.00;99.90;;;;;;5089862;28;20587;-68
2021/12/09 14:50:58;;;;;;;0.80;0.80;;;3.00;99.90;;;;;;5088641;28;20271;-70
2021/12/09 14:53:34;;;;;;;1.20;1.20;;;2.90;99.90;;;;;;5075777;28;20299;-70
2021/12/09 14:56:01;;;;;;;0.88;0.82;;;2.90;99.90;;;;;;5076348;28;20278;-70
2021/12/09 14:58:28;;;;;;;0.90;0.90;;;2.80;99.90;;;;;;5076235;28;20311;-71
2021/12/09 15:01:01;;;;;;;0.90;0.90;;;2.80;99.90;;;;;;5075981;28;20233;-72
2021/12/09 15:03:36;;;;;;;0.90;0.90;;;2.80;99.90;;;;;;5076100;28;20241;-70
2021/12/09 15:06:03;;;;;;;1.10;1.10;;;2.80;99.90;;;;;;5076235;28;20198;-70
2021/12/09 15:08:32;;;;;;;0.88;0.88;;;2.70;99.90;;;;;;5075695;28;20224;-70
2021/12/09 15:11:02;;;;;;;0.98;0.98;;;2.70;99.90;;;;;;5075772;28;20199;-72
2021/12/09 15:13:42;;;;;;;0.95;0.95;;;2.70;99.90;;;;;;5075984;28;20264;-72
2021/12/09 15:16:10;;;;;;;1.00;1.00;;;2.60;99.90;;;;;;5076003;28;20325;-73
2021/12/09 15:18:39;;;;;;;0.90;0.90;;;2.60;99.90;;;;;;5075810;28;20307;-73
2021/12/09 15:21:17;;;;;;;1.45;0.98;;;2.60;99.90;;;;;;5075448;28;20212;-73
2021/12/09 15:23:45;;;;;;;1.58;1.15;;;2.50;99.90;;;;;;5075685;28;20283;-73
2021/12/09 15:26:21;;;;;;;0.90;0.90;;;2.50;99.90;;;;;;5076317;28;20566;-73
2021/12/09 15:29:01;;;;;;;1.30;1.20;;;2.40;99.90;;;;;;5075709;28;20223;-73
2021/12/09 15:31:29;;;;;;;0.95;0.95;;;2.40;99.90;;;;;;5075287;28;20654;-73
2021/12/09 15:34:00;;;;;;;0.93;0.93;;;2.40;99.90;;;;;;5075372;28;20286;-72
2021/12/09 15:36:30;;;;;;;1.27;0.90;;;2.30;99.90;;;;;;5075308;28;20714;-73
2021/12/09 15:39:00;;;;;;;1.10;1.10;;;2.30;99.90;;;;;;5075105;28;20220;-72
2021/12/09 15:41:29;;;;;;;0.98;0.98;;;2.30;99.90;;;;;;5075053;28;20373;-71
2021/12/09 15:43:58;;;;;;;0.85;0.85;;;2.30;99.90;;;;;;5075407;28;20211;-71
2021/12/09 15:46:25;;;;;;;1.75;1.27;;;2.30;99.90;;;;;;5075365;28;20299;-71
2021/12/09 15:48:54;;;;;;;1.42;1.33;;;2.20;99.90;;;;;;5075143;28;20698;-71
2021/12/09 15:51:23;;;;;;;1.15;0.85;;;2.20;99.90;;;;;;5075019;28;20292;-71
2021/12/09 15:53:54;;;;;;;0.98;0.98;;;2.20;99.90;;;;;;5074882;28;20295;-71
2021/12/09 15:56:24;;;;;;;0.90;0.90;;;2.20;99.90;;;;;;5075148;28;20262;-71
2021/12/09 15:58:51;;;;;;;0.88;0.88;;;2.20;99.90;;;;;;5075319;28;20299;-71
2021/12/09 16:01:20;;;;;;;0.98;0.98;;;2.20;99.90;;;;;;5074485;28;20310;-71
2021/12/09 16:03:47;;;;;;;0.75;0.75;;;2.10;99.90;;;;;;5073964;28;20295;-71
2021/12/09 16:06:16;;;;;;;0.85;0.85;;;2.10;99.90;;;;;;5074722;28;20619;-71
2021/12/09 16:08:43;;;;;;;1.30;1.20;;;2.10;99.90;;;;;;5074926;28;20223;-71
2021/12/09 16:11:11;;;;;;;0.80;0.80;;;2.10;99.90;;;;;;5075024;28;20204;-71
2021/12/09 16:13:38;;;;;;;0.65;0.65;;;2.10;99.90;;;;;;5074589;28;20204;-71
2021/12/09 16:16:11;;;;;;;0.80;0.80;;;2.10;99.90;;;;;;5074916;28;20634;-71
2021/12/09 16:18:40;;;;;;;0.70;0.70;;;2.10;99.90;;;;;;5074723;28;20224;-71
2021/12/09 16:21:10;;;;;;;2.38;1.25;;;2.10;99.90;;;;;;5074645;28;20273;-70
2021/12/09 16:23:41;;;;;;;0.77;0.77;;;2.10;99.90;;;;;;5074316;28;20631;-71
2021/12/09 16:26:08;;;;;;;1.17;0.88;;;2.10;99.90;;;;;;5074517;28;20275;-71
2021/12/09 16:28:37;;;;;;;0.82;0.82;;;2.10;99.90;;;;;;5074149;28;20306;-71
2021/12/09 16:31:05;;;;;;;1.15;1.00;;;2.00;99.90;;;;;;5074431;28;20283;-71
2021/12/09 16:33:34;;;;;;;1.77;0.88;;;2.00;99.90;;;;;;5074443;28;20229;-71
2021/12/09 16:36:02;;;;;;;1.02;1.00;;;2.00;99.90;;;;;;5074124;28;20613;-72
2021/12/09 16:38:32;;;;;;;1.38;1.05;;;1.90;99.90;;;;;;5074271;28;20349;-71
2021/12/09 16:41:00;;;;;;;1.27;1.17;;;1.90;99.90;;;;;;5073728;28;20315;-72
2021/12/09 16:43:31;;;;;;;1.50;1.40;;;1.90;99.90;;;;;;5074212;28;20294;-71
2021/12/09 16:46:00;;;;;;;1.25;1.25;;;1.90;99.90;;;;;;5073891;28;20185;-71
2021/12/09 16:48:29;;;;;;;1.48;1.38;;;1.90;99.90;;;;;;5073725;28;20310;-71
2021/12/09 16:50:56;;;;;;;1.20;1.20;;;1.90;99.90;;;;;;5074115;28;20211;-72
2021/12/09 16:53:26;;;;;;;1.00;1.00;;;1.90;99.90;;;;;;5074008;28;20299;-73
2021/12/09 16:56:00;;;;;;;0.77;0.77;;;1.90;99.90;;;;;;5073751;28;20662;-72
2021/12/09 16:58:35;;;;;;;0.80;0.80;;;1.90;99.90;;;;;;5073937;28;20222;-71
2021/12/09 17:01:02;;;;;;;0.93;0.93;;;1.90;99.90;;;;;;5073892;28;20258;-70
2021/12/09 17:03:29;;;;;;;0.80;0.80;;;1.90;99.90;;;;;;5073974;28;20290;-70
2021/12/09 17:05:58;;;;;;;1.02;1.02;;;1.80;99.90;;;;;;5073551;28;20294;-72
2021/12/09 17:08:25;;;;;;;1.20;1.10;;;1.90;99.90;;;;;;5074426;28;20645;-72
2021/12/09 17:10:52;;;;;;;1.15;1.10;;;1.90;99.90;;;;;;5073881;28;20196;-72
2021/12/09 17:13:19;;;;;;;1.00;1.00;;;1.90;99.90;;;;;;5073559;28;20731;-72
2021/12/09 17:15:49;;;;;;;0.88;0.88;;;1.80;99.90;;;;;;5073219;28;20199;-72
2021/12/09 17:18:16;;;;;;;1.00;1.00;;;1.80;99.90;;;;;;5073720;28;20247;-72
2021/12/09 17:20:43;;;;;;;1.00;1.00;;;1.80;99.90;;;;;;5073308;28;20775;-72
2021/12/09 17:23:11;;;;;;;0.70;0.70;;;1.80;99.90;;;;;;5073716;28;20286;-72
2021/12/09 17:25:45;;;;;;;0.85;0.85;;;1.80;99.90;;;;;;5073726;28;20553;-72
2021/12/09 17:28:17;;;;;;;1.30;1.30;;;1.80;99.90;;;;;;5073355;28;20573;-71
2021/12/09 17:30:48;;;;;;;0.98;0.98;;;1.80;99.90;;;;;;5073681;28;20180;-71
2021/12/09 17:33:16;;;;;;;1.20;1.10;;;1.70;99.90;;;;;;5073653;28;20188;-73
2021/12/09 17:35:43;;;;;;;1.00;1.00;;;1.70;99.90;;;;;;5073247;28;20634;-71
2021/12/09 17:38:10;;;;;;;1.45;1.27;;;1.70;99.90;;;;;;5073420;28;20263;-72
2021/12/09 17:40:37;;;;;;;1.20;1.10;;;1.70;99.90;;;;;;5072949;28;20678;-71
2021/12/09 17:43:05;;;;;;;1.02;1.02;;;1.70;99.90;;;;;;5073164;28;20232;-71
2021/12/09 17:45:35;;;;;;;1.02;1.02;;;1.70;99.90;;;;;;5073484;28;20203;-71
2021/12/09 17:48:04;;;;;;;1.00;1.00;;;1.70;99.90;;;;;;5073390;28;20204;-71
2021/12/09 17:50:34;;;;;;;1.02;0.90;;;1.70;99.90;;;;;;5073458;28;20200;-71
2021/12/09 17:53:04;;;;;;;0.80;0.80;;;1.80;99.90;;;;;;5073341;28;20258;-71
2021/12/09 17:55:32;;;;;;;0.90;0.90;;;1.70;99.90;;;;;;5073421;28;20184;-71
2021/12/09 17:57:59;;;;;;;1.15;1.00;;;1.70;99.90;;;;;;5073853;28;20287;-71
2021/12/09 18:00:28;;;;;;;2.08;1.00;;;1.70;99.90;;;;;;5073213;28;20581;-73
2021/12/09 18:02:56;;;;;;;1.00;1.00;;;1.70;99.90;;;;;;5073355;28;20314;-73
2021/12/09 18:05:25;;;;;;;1.10;1.10;;;1.70;99.90;;;;;;5073184;28;20286;-72
2021/12/09 18:07:56;;;;;;;0.95;0.95;;;1.70;99.90;;;;;;5072846;28;20641;-72
2021/12/09 18:10:23;;;;;;;0.93;0.90;;;1.70;99.90;;;;;;5072960;28;20192;-73
2021/12/09 18:12:51;;;;;;;1.00;1.00;;;1.70;99.90;;;;;;5073084;28;20286;-72
2021/12/09 18:15:20;;;;;;;1.13;1.02;;;1.70;99.90;;;;;;5072818;28;20620;-72
2021/12/09 18:17:49;;;;;;;0.98;0.98;;;1.70;99.90;;;;;;5073151;28;20231;-72
2021/12/09 18:20:17;;;;;;;1.00;0.90;;;1.70;99.90;;;;;;5073090;28;20307;-72
2021/12/09 18:22:45;;;;;;;1.10;1.10;;;1.70;99.90;;;;;;5073014;28;20220;-72
2021/12/09 18:25:16;;;;;;;1.00;1.00;;;1.70;99.90;;;;;;5072734;28;20648;-72
2021/12/09 18:27:43;;;;;;;1.10;1.00;;;1.70;99.90;;;;;;5075689;28;20196;-73
2021/12/09 18:30:14;;;;;;;1.05;1.05;;;1.70;99.90;;;;;;5076586;28;20216;-73
2021/12/09 18:32:41;;;;;;;1.98;1.20;;;1.70;99.90;;;;;;5076706;28;20279;-72
2021/12/09 18:35:11;;;;;;;1.20;1.20;;;1.70;99.90;;;;;;5076906;28;20294;-72
2021/12/09 18:37:48;;;;;;;1.23;1.13;;;1.70;99.90;;;;;;5076855;28;20275;-72
2021/12/09 18:40:17;;;;;;;1.00;1.00;;;1.70;99.90;;;;;;5076019;28;20709;-71
2021/12/09 18:42:46;;;;;;;1.00;0.90;;;1.70;99.90;;;;;;5076550;28;20227;-71
2021/12/09 18:45:14;;;;;;;0.90;0.90;;;1.70;99.90;;;;;;5076527;28;20200;-71
2021/12/09 18:47:42;;;;;;;1.00;0.90;;;1.70;99.90;;;;;;5076530;28;20291;-73
2021/12/09 18:50:13;;;;;;;1.48;1.00;;;1.70;99.90;;;;;;5075988;28;20306;-73
2021/12/09 18:52:40;;;;;;;1.05;1.00;;;1.60;99.90;;;;;;5076407;28;20180;-72
2021/12/09 18:55:08;;;;;;;2.25;1.10;;;1.60;99.90;;;;;;5076263;28;20292;-72
2021/12/09 18:57:37;;;;;;;1.95;1.08;;;1.60;99.90;;;;;;5075879;28;20231;-71
2021/12/09 19:00:08;;;;;;;1.95;1.50;;;1.60;99.90;;;;;;5076308;28;20642;-68
2021/12/09 19:02:35;;;;;;;1.13;1.08;;;1.70;99.90;;;;;;5075782;28;20675;-68
2021/12/09 19:05:02;;;;;;;2.78;1.40;;;1.70;99.90;;;;;;5076057;28;20291;-68
2021/12/09 19:07:29;;;;;;;1.10;1.10;;;1.70;99.90;;;;;;5075808;28;20734;-68
2021/12/09 19:09:56;;;;;;;1.00;1.00;;;1.70;99.90;;;;;;5076007;28;20306;-69
2021/12/09 19:12:22;;;;;;;1.50;1.40;;;1.70;99.90;;;;;;5075780;28;20617;-69
2021/12/09 19:14:52;;;;;;;2.15;1.02;;;1.70;99.90;;;;;;5076038;28;20282;-69
2021/12/09 19:17:30;;;;;;;1.15;1.10;;;1.70;99.90;;;;;;5076039;28;20294;-69